createdAt,value
2022-10-29T00:02:50.000Z,10.70
2022-10-29T00:22:51.000Z,9.80
2022-10-29T00:32:52.000Z,10.50
2022-10-29T00:42:53.000Z,9.50
2022-10-29T00:52:54.000Z,9.00
2022-10-29T01:02:55.000Z,9.10
2022-10-29T01:12:55.000Z,9.00
2022-10-29T01:22:56.000Z,8.90
2022-10-29T01:32:57.000Z,7.70
2022-10-29T01:52:59.000Z,8.80
2022-10-29T02:03:00.000Z,8.10
2022-10-29T02:13:01.000Z,10.90
2022-10-29T02:23:02.000Z,9.90
2022-10-29T02:33:03.000Z,9.80
2022-10-29T02:43:03.000Z,10.80
2022-10-29T02:53:04.000Z,11.50
2022-10-29T03:03:05.000Z,9.00
2022-10-29T03:23:07.000Z,9.60
2022-10-29T03:33:08.000Z,10.80
2022-10-29T03:43:09.000Z,8.80
2022-10-29T03:53:10.000Z,8.80
2022-10-29T04:03:11.000Z,8.00
2022-10-29T04:13:12.000Z,8.60
2022-10-29T04:23:13.000Z,8.20
2022-10-29T04:33:14.000Z,9.70
2022-10-29T04:53:17.000Z,10.80
2022-10-29T05:03:18.000Z,8.80
2022-10-29T05:13:19.000Z,9.50
2022-10-29T05:23:20.000Z,9.80
2022-10-29T05:33:21.000Z,9.20
2022-10-29T05:43:22.000Z,9.00
2022-10-29T05:53:23.000Z,10.00
2022-10-29T06:03:25.000Z,13.30
2022-10-29T06:23:27.000Z,8.70
2022-10-29T06:33:28.000Z,10.10
2022-10-29T06:43:29.000Z,9.40
2022-10-29T06:53:30.000Z,11.00
2022-10-29T07:03:31.000Z,12.20
2022-10-29T07:13:32.000Z,18.80
2022-10-29T07:23:34.000Z,19.70
2022-10-29T07:33:35.000Z,17.50
2022-10-29T07:53:37.000Z,12.70
2022-10-29T09:05:40.000Z,11.00
2022-10-29T09:05:40.000Z,9.80
2022-10-29T09:30:57.000Z,9.00
2022-10-29T09:30:57.000Z,9.90
2022-10-29T09:51:15.000Z,9.50
2022-10-29T09:51:15.000Z,9.70
2022-10-29T10:16:32.000Z,9.20
2022-10-29T10:16:32.000Z,9.60
2022-10-29T10:26:31.000Z,8.60
2022-10-29T10:36:31.000Z,9.60
2022-10-29T10:46:31.000Z,8.70
2022-10-29T10:56:31.000Z,8.70
2022-10-29T11:06:30.000Z,10.00
2022-10-29T11:16:30.000Z,10.10
2022-10-29T11:26:30.000Z,10.60
2022-10-29T11:46:29.000Z,8.70
2022-10-29T11:56:29.000Z,8.70
2022-10-29T12:06:28.000Z,9.10
2022-10-29T12:16:28.000Z,10.60
2022-10-29T12:26:28.000Z,10.70
2022-10-29T12:36:27.000Z,11.60
2022-10-29T12:46:27.000Z,10.50
2022-10-29T12:56:27.000Z,11.50
2022-10-29T13:16:26.000Z,9.10
2022-10-29T13:26:26.000Z,10.00
2022-10-29T13:36:26.000Z,9.10
2022-10-29T13:46:25.000Z,10.30
2022-10-29T13:56:25.000Z,10.10
2022-10-29T14:06:25.000Z,9.90
2022-10-29T14:16:24.000Z,12.80
2022-10-29T14:26:24.000Z,13.40
2022-10-29T14:46:23.000Z,13.70
2022-10-29T14:56:23.000Z,14.90
2022-10-29T15:06:23.000Z,12.80
2022-10-29T15:16:22.000Z,14.10
2022-10-29T15:26:22.000Z,14.60
2022-10-29T15:36:22.000Z,13.90
2022-10-29T16:27:48.000Z,15.80
2022-10-29T17:46:16.000Z,26.00
2022-10-29T17:46:16.000Z,29.10
2022-10-29T17:56:16.000Z,29.20
2022-10-29T18:06:16.000Z,30.80
2022-10-29T18:16:16.000Z,32.10
2022-10-29T18:26:16.000Z,25.00
2022-10-29T18:36:15.000Z,26.30
2022-10-29T18:46:15.000Z,29.40
2022-10-29T18:56:15.000Z,28.10
2022-10-29T19:16:15.000Z,28.80
2022-10-29T19:26:16.000Z,29.60
2022-10-29T19:36:16.000Z,28.40
2022-10-29T19:46:16.000Z,28.10
2022-10-29T19:56:16.000Z,44.60
2022-10-29T20:47:43.000Z,33.10
2022-10-29T21:23:35.000Z,21.30
2022-10-29T21:23:35.000Z,20.30
2022-10-29T21:33:35.000Z,21.80
2022-10-29T21:43:35.000Z,21.20
2022-10-29T21:53:35.000Z,23.20
2022-10-29T22:03:34.000Z,21.30
2022-10-29T22:13:34.000Z,22.00
2022-10-29T22:23:34.000Z,19.30
2022-10-29T22:33:34.000Z,21.40
2022-10-29T22:53:34.000Z,21.50
2022-10-29T23:03:34.000Z,20.60
2022-10-29T23:13:34.000Z,19.50
2022-10-29T23:23:34.000Z,17.40
2022-10-29T23:33:34.000Z,18.60
2022-10-29T23:43:34.000Z,18.70
2022-10-29T23:53:34.000Z,17.90
